Time;durP1;ratioP1;P1;durP2;ratioP2;P2;SDS_P1;SDS_P2;PMS_P1;PMS_P2;Temp;Humidity;BMP_temperature;BMP_pressure;BME280_temperature;BME280_humidity;BME280_pressure;Samples;Min_cycle;Max_cycle;Signal;HPM_P1;HPM_P2
2023/02/26 00:01:37;;;;;;;;;;;;;;;1.13;72.25;95849.63;108695;1251;95689;-71
2023/02/26 00:04:06;;;;;;;;;;;;;;;1.12;72.34;95854.98;108747;1251;103756;-73
2023/02/26 00:06:36;;;;;;;;;;;;;;;1.13;72.36;95850.81;108986;1250;100999;-71
2023/02/26 00:09:05;;;;;;;;;;;;;;;1.17;72.38;95850.04;108740;1250;99020;-72
2023/02/26 00:11:34;;;;;;;;;;;;;;;1.20;72.36;95853.63;109019;1251;95579;-71
2023/02/26 00:14:02;;;;;;;;;;;;;;;1.23;72.46;95866.39;108635;1251;96433;-72
2023/02/26 00:16:35;;;;;;;;;;;;;;;1.26;72.50;95872.61;109084;1251;103643;-72
2023/02/26 00:19:05;;;;;;;;;;;;;;;1.29;72.49;95873.45;109046;1250;101345;-74
2023/02/26 00:21:33;;;;;;;;;;;;;;;1.27;72.52;95867.42;108669;1251;98987;-73
2023/02/26 00:24:02;;;;;;;;;;;;;;;1.25;72.61;95868.39;108978;1251;95560;-72
2023/02/26 00:26:31;;;;;;;;;;;;;;;1.25;72.78;95869.29;108981;1249;96452;-70
2023/02/26 00:28:59;;;;;;;;;;;;;;;1.25;72.81;95873.98;108677;1251;103779;-71
2023/02/26 00:31:28;;;;;;;;;;;;;;;1.24;72.99;95880.27;108776;1250;101250;-72
2023/02/26 00:33:56;;;;;;;;;;;;;;;1.21;73.13;95888.07;109006;1250;99948;-72
2023/02/26 00:36:36;;;;;;;;;;;;;;;1.20;73.27;95897.55;109017;1251;95527;-72
2023/02/26 00:39:04;;;;;;;;;;;;;;;1.23;73.18;95902.58;109008;1250;95593;-71
2023/02/26 00:41:32;;;;;;;;;;;;;;;1.22;73.22;95898.82;109053;1250;103416;-72
2023/02/26 00:44:00;;;;;;;;;;;;;;;1.18;73.24;95897.36;109018;1250;101506;-72
2023/02/26 00:46:51;;;;;;;;;;;;;;;1.10;73.45;95889.02;109030;1250;99844;-72
2023/02/26 00:49:25;;;;;;;;;;;;;;;1.07;73.64;95894.23;108278;1260;95816;-72
2023/02/26 00:51:58;;;;;;;;;;;;;;;1.08;73.83;95904.18;108301;1258;95733;-72
2023/02/26 00:54:27;;;;;;;;;;;;;;;1.11;73.83;95903.13;108119;1260;102907;-74
2023/02/26 00:56:57;;;;;;;;;;;;;;;1.12;73.77;95903.02;108306;1257;101251;-73
2023/02/26 00:59:25;;;;;;;;;;;;;;;1.10;73.83;95898.50;108119;1259;99166;-71
2023/02/26 01:01:53;;;;;;;;;;;;;;;1.07;73.91;95890.31;108224;1259;95599;-72
2023/02/26 01:04:22;;;;;;;;;;;;;;;1.05;74.00;95889.44;108340;1258;95673;-72
2023/02/26 01:06:52;;;;;;;;;;;;;;;1.03;73.96;95892.27;108278;1259;103359;-72
2023/02/26 01:09:29;;;;;;;;;;;;;;;0.98;73.99;95881.20;108316;1258;101052;-73
2023/02/26 01:12:00;;;;;;;;;;;;;;;0.93;74.14;95875.11;108200;1258;99759;-75
2023/02/26 01:14:30;;;;;;;;;;;;;;;0.89;74.23;95871.50;108281;1258;95682;-72
2023/02/26 01:16:58;;;;;;;;;;;;;;;0.85;74.35;95860.64;108327;1259;95758;-72
2023/02/26 01:19:35;;;;;;;;;;;;;;;0.83;74.34;95851.89;108276;1260;103549;-75
2023/02/26 01:22:23;;;;;;;;;;;;;;;0.74;74.50;95849.42;108300;1258;101502;-72
2023/02/26 01:25:02;;;;;;;;;;;;;;;0.67;74.69;95852.98;108226;1259;99947;-72
2023/02/26 01:27:30;;;;;;;;;;;;;;;0.59;74.74;95849.70;108763;1251;95588;-72
2023/02/26 01:29:58;;;;;;;;;;;;;;;0.54;74.82;95853.68;108940;1251;96430;-75
2023/02/26 01:32:26;;;;;;;;;;;;;;;0.49;74.76;95859.80;108854;1251;112247;-72
2023/02/26 01:34:58;;;;;;;;;;;;;;;0.46;74.71;95868.31;108951;1251;101228;-72
2023/02/26 01:37:31;;;;;;;;;;;;;;;0.47;74.82;95873.38;108838;1251;99971;-72
2023/02/26 01:39:59;;;;;;;;;;;;;;;0.43;74.76;95879.98;108939;1251;95573;-72
2023/02/26 01:42:30;;;;;;;;;;;;;;;0.37;74.71;95890.43;108945;1251;95547;-75
2023/02/26 01:45:03;;;;;;;;;;;;;;;0.38;74.75;95906.95;108950;1251;103653;-71
2023/02/26 01:47:39;;;;;;;;;;;;;;;0.40;74.66;95908.13;108871;1251;101272;-72
2023/02/26 01:50:28;;;;;;;;;;;;;;;0.40;74.46;95914.89;108883;1251;100105;-73
2023/02/26 01:53:15;;;;;;;;;;;;;;;0.39;74.45;95916.92;108792;1251;95561;-72
2023/02/26 01:55:45;;;;;;;;;;;;;;;0.42;74.36;95921.88;108881;1251;95627;-72
2023/02/26 01:58:13;;;;;;;;;;;;;;;0.38;74.52;95924.11;108799;1251;103481;-72
2023/02/26 02:00:41;;;;;;;;;;;;;;;0.28;74.48;95927.93;108973;1251;101206;-73
2023/02/26 02:03:10;;;;;;;;;;;;;;;0.23;74.55;95923.46;108905;1251;108098;-73
2023/02/26 02:05:57;;;;;;;;;;;;;;;0.21;74.77;95928.99;108908;1251;95601;-72
2023/02/26 02:08:25;;;;;;;;;;;;;;;0.18;74.82;95934.52;108900;1251;95576;-72
2023/02/26 02:10:54;;;;;;;;;;;;;;;0.17;74.86;95929.98;108891;1251;103534;-72
2023/02/26 02:13:40;;;;;;;;;;;;;;;0.14;74.95;95928.91;108952;1251;101149;-73
2023/02/26 02:16:21;;;;;;;;;;;;;;;0.13;74.98;95932.58;108880;1251;99993;-72
2023/02/26 02:19:08;;;;;;;;;;;;;;;0.11;75.07;95930.96;108695;1250;95742;-72
2023/02/26 02:21:42;;;;;;;;;;;;;;;0.11;75.10;95939.81;109040;1250;95650;-75
2023/02/26 02:24:15;;;;;;;;;;;;;;;0.11;75.17;95953.38;109054;1251;103796;-72
2023/02/26 02:26:59;;;;;;;;;;;;;;;0.16;75.25;95956.87;108675;1251;101079;-74
2023/02/26 02:29:27;;;;;;;;;;;;;;;0.21;75.13;95955.85;109010;1251;99034;-72
2023/02/26 02:32:00;;;;;;;;;;;;;;;0.23;75.07;95947.15;109018;1251;95511;-72
2023/02/26 02:34:28;;;;;;;;;;;;;;;0.23;75.26;95952.33;109063;1251;95637;-72
2023/02/26 02:36:56;;;;;;;;;;;;;;;0.20;75.28;95970.73;109064;1253;102563;-73
2023/02/26 02:39:33;;;;;;;;;;;;;;;0.19;75.25;95988.81;109066;1249;101286;-72
2023/02/26 02:42:17;;;;;;;;;;;;;;;0.19;75.27;95988.12;109019;1251;99921;-73
2023/02/26 02:44:47;;;;;;;;;;;;;;;0.21;75.12;95974.34;109005;1249;95480;-72
2023/02/26 02:47:17;;;;;;;;;;;;;;;0.23;75.07;95969.44;108730;1249;95983;-74
2023/02/26 02:49:51;;;;;;;;;;;;;;;0.22;75.13;95967.83;108751;1251;103449;-74
2023/02/26 02:52:22;;;;;;;;;;;;;;;0.19;74.90;95966.06;109049;1250;101521;-72
2023/02/26 02:54:57;;;;;;;;;;;;;;;0.19;74.92;95955.58;109019;1251;100266;-72
2023/02/26 02:57:29;;;;;;;;;;;;;;;0.20;74.94;95934.85;109021;1251;95508;-72
2023/02/26 02:59:59;;;;;;;;;;;;;;;0.22;74.93;95941.33;109030;1251;96402;-75
2023/02/26 03:02:36;;;;;;;;;;;;;;;0.22;74.80;95946.89;109011;1251;103614;-72
2023/02/26 03:05:04;;;;;;;;;;;;;;;0.19;74.62;95955.73;109061;1249;101154;-72
2023/02/26 03:07:34;;;;;;;;;;;;;;;0.17;74.59;95974.04;108680;1251;99004;-72
2023/02/26 03:10:03;;;;;;;;;;;;;;;0.20;74.58;95976.40;108978;1251;95542;-73
2023/02/26 03:12:32;;;;;;;;;;;;;;;0.22;74.63;95978.38;109066;1251;95589;-72
2023/02/26 03:15:00;;;;;;;;;;;;;;;0.24;74.67;95991.64;109055;1251;103488;-75
2023/02/26 03:17:28;;;;;;;;;;;;;;;0.25;74.79;95997.66;109036;1250;101380;-72
2023/02/26 03:19:56;;;;;;;;;;;;;;;0.26;74.73;96016.52;108993;1251;99883;-72
2023/02/26 03:22:39;;;;;;;;;;;;;;;0.24;74.71;96030.19;109037;1251;95554;-76
2023/02/26 03:25:26;;;;;;;;;;;;;;;0.23;74.51;96029.90;109075;1251;95611;-72
2023/02/26 03:28:02;;;;;;;;;;;;;;;0.27;74.42;96042.07;109070;1251;103251;-73
2023/02/26 03:30:48;;;;;;;;;;;;;;;0.28;74.49;96046.63;109031;1251;101437;-75
2023/02/26 03:33:19;;;;;;;;;;;;;;;0.32;74.54;96056.95;109032;1251;99444;-74
2023/02/26 03:35:56;;;;;;;;;;;;;;;0.36;74.56;96042.51;109009;1251;95521;-71
2023/02/26 03:38:29;;;;;;;;;;;;;;;0.37;74.43;96043.89;109086;1251;95771;-72
2023/02/26 03:41:03;;;;;;;;;;;;;;;0.37;74.50;96041.16;109006;1250;103132;-71
2023/02/26 03:43:35;;;;;;;;;;;;;;;0.40;74.42;96046.16;109057;1250;101533;-71
2023/02/26 03:46:05;;;;;;;;;;;;;;;0.43;74.15;96045.17;108990;1250;100042;-72
2023/02/26 03:48:35;;;;;;;;;;;;;;;0.45;74.27;96032.91;109041;1250;95563;-74
2023/02/26 03:51:06;;;;;;;;;;;;;;;0.46;74.32;96034.49;108742;1251;95629;-74
2023/02/26 03:53:38;;;;;;;;;;;;;;;0.41;74.22;96028.36;109047;1250;103499;-76
2023/02/26 03:56:20;;;;;;;;;;;;;;;0.35;73.95;96033.42;108672;1251;101543;-72
2023/02/26 03:58:48;;;;;;;;;;;;;;;0.30;74.14;96048.95;109026;1250;99946;-71
2023/02/26 04:01:22;;;;;;;;;;;;;;;0.26;74.08;96068.45;109043;1250;95740;-72
2023/02/26 04:03:55;;;;;;;;;;;;;;;0.23;74.13;96081.42;109054;1250;95599;-75
2023/02/26 04:06:24;;;;;;;;;;;;;;;0.21;74.12;96086.63;108653;1251;103320;-73
2023/02/26 04:08:52;;;;;;;;;;;;;;;0.22;74.04;96101.02;109020;1251;101428;-72
2023/02/26 04:11:21;;;;;;;;;;;;;;;0.26;74.04;96103.76;109042;1251;100012;-72
2023/02/26 04:13:49;;;;;;;;;;;;;;;0.29;74.04;96105.89;109038;1251;95545;-74
2023/02/26 04:16:18;;;;;;;;;;;;;;;0.33;74.09;96102.41;109013;1251;95629;-74
2023/02/26 04:18:46;;;;;;;;;;;;;;;0.35;74.04;96112.78;109034;1249;102490;-74
2023/02/26 04:21:15;;;;;;;;;;;;;;;0.36;74.07;96116.67;109061;1249;101346;-72
2023/02/26 04:23:43;;;;;;;;;;;;;;;0.37;74.02;96093.77;109053;1250;100175;-72
2023/02/26 04:26:12;;;;;;;;;;;;;;;0.39;73.98;96094.65;108990;1251;95549;-72
2023/02/26 04:28:40;;;;;;;;;;;;;;;0.41;73.91;96101.30;109081;1250;96073;-75
2023/02/26 04:31:09;;;;;;;;;;;;;;;0.43;73.83;96113.42;108986;1250;102658;-70
2023/02/26 04:33:36;;;;;;;;;;;;;;;0.38;73.90;96111.59;108738;1249;109266;-72
2023/02/26 04:36:05;;;;;;;;;;;;;;;0.32;73.77;96112.56;109008;1250;99951;-72
2023/02/26 04:38:33;;;;;;;;;;;;;;;0.31;73.83;96112.14;108999;1249;95556;-74
2023/02/26 04:41:01;;;;;;;;;;;;;;;0.31;73.81;96101.77;108722;1251;95646;-72
2023/02/26 04:43:29;;;;;;;;;;;;;;;0.32;73.80;96106.33;109074;1249;103922;-73
2023/02/26 04:45:56;;;;;;;;;;;;;;;0.33;73.91;96112.40;109042;1250;100394;-74
2023/02/26 04:48:26;;;;;;;;;;;;;;;0.35;74.08;96117.20;109029;1250;100009;-72
2023/02/26 04:50:53;;;;;;;;;;;;;;;0.29;74.15;96119.30;108693;1251;95932;-73
2023/02/26 04:53:21;;;;;;;;;;;;;;;0.18;74.27;96124.16;109024;1251;95591;-72
2023/02/26 04:55:49;;;;;;;;;;;;;;;0.07;74.50;96135.31;109066;1251;103650;-72
2023/02/26 04:58:17;;;;;;;;;;;;;;;-0.07;74.70;96132.36;109091;1250;101437;-72
2023/02/26 05:00:48;;;;;;;;;;;;;;;-0.14;74.78;96131.60;109067;1251;100038;-71
2023/02/26 05:03:16;;;;;;;;;;;;;;;-0.13;74.65;96132.02;109014;1250;96495;-73
2023/02/26 05:05:45;;;;;;;;;;;;;;;-0.10;74.61;96144.63;109021;1251;95717;-72
2023/02/26 05:08:13;;;;;;;;;;;;;;;-0.10;74.61;96154.80;108753;1250;103824;-73
2023/02/26 05:10:40;;;;;;;;;;;;;;;-0.15;74.61;96141.24;109051;1249;101357;-74
2023/02/26 05:13:08;;;;;;;;;;;;;;;-0.19;74.73;96144.52;108970;1251;100164;-72
2023/02/26 05:15:36;;;;;;;;;;;;;;;-0.22;74.73;96157.30;108994;1251;95621;-75
2023/02/26 05:18:04;;;;;;;;;;;;;;;-0.26;74.71;96143.61;109083;1251;95682;-73
2023/02/26 05:20:32;;;;;;;;;;;;;;;-0.28;74.70;96132.15;109051;1250;103518;-72
2023/02/26 05:23:03;;;;;;;;;;;;;;;-0.37;74.77;96135.29;109020;1251;101062;-72
2023/02/26 05:25:31;;;;;;;;;;;;;;;-0.44;74.94;96148.14;109048;1249;99673;-75
2023/02/26 05:27:59;;;;;;;;;;;;;;;-0.43;74.98;96154.56;109042;1249;95717;-74
2023/02/26 05:30:27;;;;;;;;;;;;;;;-0.35;75.11;96165.10;109037;1249;95654;-72
2023/02/26 05:32:55;;;;;;;;;;;;;;;-0.26;75.17;96175.10;109084;1251;103381;-72
2023/02/26 05:35:23;;;;;;;;;;;;;;;-0.19;75.08;96180.45;109076;1250;101460;-72
2023/02/26 05:37:51;;;;;;;;;;;;;;;-0.14;74.91;96192.94;109004;1251;99784;-73
2023/02/26 05:40:19;;;;;;;;;;;;;;;-0.09;74.81;96210.11;109002;1250;95620;-70
2023/02/26 05:42:47;;;;;;;;;;;;;;;-0.05;74.95;96213.80;109045;1250;95640;-72
2023/02/26 05:45:15;;;;;;;;;;;;;;;-0.02;74.72;96226.36;108975;1251;103728;-72
2023/02/26 05:47:43;;;;;;;;;;;;;;;0.01;74.74;96233.16;108700;1251;101401;-72
2023/02/26 05:50:11;;;;;;;;;;;;;;;0.01;74.50;96243.04;108680;1251;99021;-74
2023/02/26 05:52:39;;;;;;;;;;;;;;;0.00;74.35;96255.89;108977;1250;95564;-72
2023/02/26 05:55:08;;;;;;;;;;;;;;;-0.04;74.29;96268.17;109033;1250;95624;-73
2023/02/26 05:57:36;;;;;;;;;;;;;;;-0.13;74.16;96278.64;108792;1251;103736;-72
2023/02/26 06:00:05;;;;;;;;;;;;;;;-0.17;74.24;96275.13;109042;1250;100988;-72
2023/02/26 06:02:33;;;;;;;;;;;;;;;-0.19;74.23;96276.63;108962;1250;100414;-71
2023/02/26 06:05:01;;;;;;;;;;;;;;;-0.23;74.16;96275.02;109033;1250;95570;-72
2023/02/26 06:07:29;;;;;;;;;;;;;;;-0.32;74.13;96270.71;109040;1250;95633;-74
2023/02/26 06:09:57;;;;;;;;;;;;;;;-0.44;74.24;96277.29;109058;1250;103615;-72
2023/02/26 06:12:25;;;;;;;;;;;;;;;-0.53;74.26;96280.56;108827;1251;100521;-73
2023/02/26 06:14:53;;;;;;;;;;;;;;;-0.52;74.49;96288.09;109045;1249;99390;-74
2023/02/26 06:17:21;;;;;;;;;;;;;;;-0.47;74.41;96295.19;108675;1251;95896;-72
2023/02/26 06:19:50;;;;;;;;;;;;;;;-0.45;74.30;96299.82;109086;1250;95633;-73
2023/02/26 06:22:18;;;;;;;;;;;;;;;-0.42;74.18;96293.12;109041;1251;103641;-72
2023/02/26 06:24:46;;;;;;;;;;;;;;;-0.38;74.16;96291.79;109021;1249;101476;-72
2023/02/26 06:27:15;;;;;;;;;;;;;;;-0.37;73.93;96290.69;109000;1250;99840;-72
2023/02/26 06:29:43;;;;;;;;;;;;;;;-0.38;73.81;96295.83;108963;1250;95961;-72
2023/02/26 06:32:11;;;;;;;;;;;;;;;-0.32;73.76;96302.53;109052;1250;95586;-73
2023/02/26 06:34:39;;;;;;;;;;;;;;;-0.28;73.82;96308.06;109014;1251;103592;-71
2023/02/26 06:37:06;;;;;;;;;;;;;;;-0.25;73.63;96308.98;108995;1250;100033;-71
2023/02/26 06:39:34;;;;;;;;;;;;;;;-0.23;73.55;96304.20;108996;1249;99932;-71
2023/02/26 06:42:03;;;;;;;;;;;;;;;-0.26;73.21;96312.10;108989;1250;95746;-73
2023/02/26 06:44:32;;;;;;;;;;;;;;;-0.32;73.02;96319.44;109038;1251;95574;-74
2023/02/26 06:47:00;;;;;;;;;;;;;;;-0.28;73.03;96318.51;109036;1250;103600;-71
2023/02/26 06:49:28;;;;;;;;;;;;;;;-0.23;73.07;96309.34;109058;1249;101295;-70
2023/02/26 06:51:56;;;;;;;;;;;;;;;-0.19;73.09;96316.55;109016;1249;99983;-71
2023/02/26 06:54:24;;;;;;;;;;;;;;;-0.14;72.87;96323.27;109051;1250;95809;-71
2023/02/26 06:56:52;;;;;;;;;;;;;;;-0.15;72.63;96335.48;109019;1251;95622;-71
2023/02/26 06:59:20;;;;;;;;;;;;;;;-0.13;72.66;96344.59;109045;1250;103490;-73
2023/02/26 07:01:48;;;;;;;;;;;;;;;-0.11;72.57;96349.57;109050;1250;110975;-70
2023/02/26 07:04:16;;;;;;;;;;;;;;;-0.10;72.49;96346.11;109023;1251;100162;-71
2023/02/26 07:06:44;;;;;;;;;;;;;;;-0.06;72.42;96353.88;109040;1250;95561;-72
2023/02/26 07:09:12;;;;;;;;;;;;;;;-0.02;72.50;96355.00;109030;1250;95832;-71
2023/02/26 07:11:40;;;;;;;;;;;;;;;-0.01;72.28;96349.35;108986;1250;103441;-71
2023/02/26 07:14:08;;;;;;;;;;;;;;;-0.03;72.20;96353.87;109080;1250;101432;-70
2023/02/26 07:16:36;;;;;;;;;;;;;;;-0.12;72.21;96355.02;108995;1249;100143;-71
2023/02/26 07:19:04;;;;;;;;;;;;;;;-0.09;72.55;96357.16;109062;1250;95609;-73
2023/02/26 07:21:32;;;;;;;;;;;;;;;-0.01;72.57;96355.09;109028;1250;95710;-72
2023/02/26 07:24:00;;;;;;;;;;;;;;;0.05;72.59;96367.63;109016;1250;103173;-71
2023/02/26 07:26:28;;;;;;;;;;;;;;;0.11;72.47;96369.64;109076;1250;101327;-75
2023/02/26 07:28:56;;;;;;;;;;;;;;;0.15;72.34;96382.48;109029;1249;100176;-73
2023/02/26 07:31:25;;;;;;;;;;;;;;;0.16;72.14;96391.58;109100;1250;96009;-75
2023/02/26 07:33:53;;;;;;;;;;;;;;;0.12;72.00;96400.08;109056;1250;95590;-71
2023/02/26 07:36:20;;;;;;;;;;;;;;;0.11;72.04;96407.32;109081;1250;103643;-73
2023/02/26 07:38:49;;;;;;;;;;;;;;;0.10;71.92;96410.04;109115;1250;101468;-73
2023/02/26 07:41:17;;;;;;;;;;;;;;;0.13;72.11;96415.20;109005;1249;99905;-73
2023/02/26 07:43:45;;;;;;;;;;;;;;;0.16;71.99;96421.09;109027;1249;95603;-74
2023/02/26 07:46:13;;;;;;;;;;;;;;;0.18;71.88;96424.70;109035;1249;96366;-73
2023/02/26 07:48:41;;;;;;;;;;;;;;;0.23;71.77;96429.80;109123;1250;103421;-71
2023/02/26 07:51:09;;;;;;;;;;;;;;;0.28;71.71;96426.39;109044;1250;101355;-71
2023/02/26 07:53:37;;;;;;;;;;;;;;;0.31;71.69;96426.98;109015;1249;108470;-69
2023/02/26 07:56:05;;;;;;;;;;;;;;;0.29;71.39;96428.05;108991;1249;95536;-69
2023/02/26 07:58:34;;;;;;;;;;;;;;;0.21;71.38;96433.59;108858;1250;233104;-73
2023/02/26 08:01:02;;;;;;;;;;;;;;;0.26;71.75;96439.23;109078;1250;103296;-74
2023/02/26 08:03:31;;;;;;;;;;;;;;;0.32;71.58;96439.92;109057;1250;100017;-72
2023/02/26 08:06:00;;;;;;;;;;;;;;;0.33;71.16;96438.96;109022;1250;100118;-74
2023/02/26 08:08:28;;;;;;;;;;;;;;;0.31;70.86;96441.45;108706;1250;95610;-74
2023/02/26 08:10:56;;;;;;;;;;;;;;;0.25;70.39;96442.17;108990;1250;95626;-72
2023/02/26 08:13:24;;;;;;;;;;;;;;;0.21;70.06;96438.50;108676;1251;103569;-70
2023/02/26 08:15:52;;;;;;;;;;;;;;;0.18;70.30;96440.70;108733;1250;100077;-75
2023/02/26 08:18:20;;;;;;;;;;;;;;;0.15;69.94;96444.85;108993;1250;98972;-70
2023/02/26 08:20:50;;;;;;;;;;;;;;;0.07;69.80;96448.83;108972;1249;95666;-72
2023/02/26 08:23:19;;;;;;;;;;;;;;;-0.01;69.79;96452.69;108963;1251;96069;-71
2023/02/26 08:25:47;;;;;;;;;;;;;;;-0.02;70.00;96465.00;108969;1250;103169;-71
2023/02/26 08:28:16;;;;;;;;;;;;;;;0.02;70.24;96462.02;108893;1249;101685;-71
2023/02/26 08:30:44;;;;;;;;;;;;;;;0.07;70.02;96467.77;108697;1251;99834;-70
2023/02/26 08:33:12;;;;;;;;;;;;;;;0.13;69.72;96470.23;108610;1251;95655;-74
2023/02/26 08:35:40;;;;;;;;;;;;;;;0.21;69.31;96468.48;108695;1251;95689;-71
2023/02/26 08:38:08;;;;;;;;;;;;;;;0.25;69.26;96475.08;108876;1251;103532;-71
2023/02/26 08:40:36;;;;;;;;;;;;;;;0.39;69.34;96475.61;109059;1250;101183;-71
2023/02/26 08:43:04;;;;;;;;;;;;;;;0.59;69.28;96482.08;108979;1250;99761;-76
2023/02/26 08:45:32;;;;;;;;;;;;;;;0.68;68.92;96493.30;108999;1249;95556;-73
2023/02/26 08:48:00;;;;;;;;;;;;;;;0.58;68.24;96494.27;108702;1251;95936;-73
2023/02/26 08:50:28;;;;;;;;;;;;;;;0.48;68.33;96497.36;109004;1250;103605;-70
2023/02/26 08:52:56;;;;;;;;;;;;;;;0.52;68.19;96507.09;108991;1250;101588;-70
2023/02/26 08:55:24;;;;;;;;;;;;;;;0.53;67.98;96508.21;109025;1250;99792;-71
2023/02/26 08:57:52;;;;;;;;;;;;;;;0.41;67.58;96509.55;109020;1250;95871;-71
2023/02/26 09:00:20;;;;;;;;;;;;;;;0.36;67.61;96511.52;108934;1249;95696;-70
2023/02/26 09:02:48;;;;;;;;;;;;;;;0.39;67.84;96513.89;108739;1249;103517;-74
2023/02/26 09:05:17;;;;;;;;;;;;;;;0.44;67.76;96514.95;109023;1250;100960;-71
2023/02/26 09:07:45;;;;;;;;;;;;;;;0.46;67.58;96518.84;108984;1249;99718;-70
2023/02/26 09:10:13;;;;;;;;;;;;;;;0.45;67.44;96516.95;109035;1250;95579;-71
2023/02/26 09:12:42;;;;;;;;;;;;;;;0.43;67.45;96515.42;109019;1249;95778;-71
2023/02/26 09:15:10;;;;;;;;;;;;;;;0.46;67.64;96520.92;109036;1250;103715;-71
2023/02/26 09:17:39;;;;;;;;;;;;;;;0.57;67.54;96528.48;108745;1250;99324;-69
2023/02/26 09:20:07;;;;;;;;;;;;;;;0.71;67.40;96529.58;108845;1251;109196;-71
2023/02/26 09:22:36;;;;;;;;;;;;;;;0.87;67.39;96536.68;109007;1249;95558;-71
2023/02/26 09:25:04;;;;;;;;;;;;;;;1.01;67.26;96549.52;109053;1250;95585;-70
2023/02/26 09:27:33;;;;;;;;;;;;;;;1.09;66.67;96547.94;109074;1250;103577;-70
2023/02/26 09:30:01;;;;;;;;;;;;;;;1.04;66.24;96542.29;109024;1250;101300;-72
2023/02/26 09:32:29;;;;;;;;;;;;;;;1.02;66.01;96542.67;108957;1250;99865;-71
2023/02/26 09:34:57;;;;;;;;;;;;;;;1.07;65.57;96541.63;108948;1249;95769;-71
2023/02/26 09:37:25;;;;;;;;;;;;;;;1.07;65.44;96542.82;108978;1249;95597;-70
2023/02/26 09:39:53;;;;;;;;;;;;;;;1.01;65.51;96546.39;108987;1250;102129;-71
2023/02/26 09:42:39;;;;;;;;;;;;;;;0.99;65.84;96550.85;109026;1250;100989;-71
2023/02/26 09:45:12;;;;;;;;;;;;;;;0.88;66.14;96558.88;108920;1250;100205;-74
2023/02/26 09:47:45;;;;;;;;;;;;;;;0.79;66.62;96562.72;108973;1249;95623;-75
2023/02/26 09:50:18;;;;;;;;;;;;;;;0.65;66.91;96566.42;109020;1250;95599;-71
2023/02/26 09:52:59;;;;;;;;;;;;;;;0.46;67.26;96565.16;108996;1250;103910;-71
2023/02/26 09:55:33;;;;;;;;;;;;;;;0.35;67.42;96565.69;108956;1249;101335;-70
2023/02/26 09:58:06;;;;;;;;;;;;;;;0.39;67.85;96566.08;108956;1250;99814;-71
2023/02/26 10:00:42;;;;;;;;;;;;;;;0.43;67.58;96566.06;108998;1250;95797;-71
2023/02/26 10:03:16;;;;;;;;;;;;;;;0.61;67.85;96570.67;109011;1250;95633;-71
2023/02/26 10:06:06;;;;;;;;;;;;;;;0.90;68.14;96571.02;109021;1250;103496;-73
2023/02/26 10:08:39;;;;;;;;;;;;;;;1.39;68.06;96568.04;109034;1249;100318;-71
2023/02/26 10:11:20;;;;;;;;;;;;;;;1.89;67.71;96572.90;108364;1251;99062;-71
2023/02/26 10:13:54;;;;;;;;;;;;;;;2.36;67.28;96579.08;108956;1249;95588;-73
2023/02/26 10:16:23;;;;;;;;;;;;;;;2.48;66.39;96585.40;109041;1250;96646;-71
2023/02/26 10:18:55;;;;;;;;;;;;;;;2.37;66.22;96598.95;109024;1249;103722;-70
2023/02/26 10:21:30;;;;;;;;;;;;;;;2.17;66.07;96610.83;109034;1250;101528;-74
2023/02/26 10:24:00;;;;;;;;;;;;;;;1.97;65.94;96620.89;108974;1249;99008;-73
2023/02/26 10:26:30;;;;;;;;;;;;;;;1.80;66.03;96617.94;109003;1250;95517;-74
2023/02/26 10:28:58;;;;;;;;;;;;;;;1.72;66.20;96618.18;108887;1250;95724;-73
2023/02/26 10:31:30;;;;;;;;;;;;;;;1.60;66.25;96624.94;109045;1249;103401;-71
2023/02/26 10:34:16;;;;;;;;;;;;;;;1.40;66.16;96631.33;108992;1250;101511;-73
2023/02/26 10:36:48;;;;;;;;;;;;;;;1.20;66.39;96631.69;108729;1249;99040;-75
2023/02/26 10:39:19;;;;;;;;;;;;;;;1.12;66.69;96629.70;108735;1249;95620;-73
2023/02/26 10:41:47;;;;;;;;;;;;;;;0.98;66.92;96633.33;109063;1249;95642;-71
2023/02/26 10:44:22;;;;;;;;;;;;;;;0.79;67.20;96629.67;109028;1249;103492;-71
2023/02/26 10:47:00;;;;;;;;;;;;;;;0.57;67.63;96630.00;109023;1249;101515;-72
2023/02/26 10:49:50;;;;;;;;;;;;;;;0.45;68.02;96631.98;108950;1249;99832;-71
2023/02/26 10:52:20;;;;;;;;;;;;;;;0.54;68.53;96638.77;108920;1250;95557;-71
2023/02/26 10:55:07;;;;;;;;;;;;;;;0.68;68.47;96644.70;109037;1249;96557;-71
2023/02/26 10:57:39;;;;;;;;;;;;;;;0.77;68.53;96654.68;109010;1250;102499;-71
2023/02/26 11:00:11;;;;;;;;;;;;;;;0.93;68.45;96656.73;109024;1250;101486;-71
2023/02/26 11:02:44;;;;;;;;;;;;;;;1.04;67.87;96661.04;108378;1251;99009;-71
2023/02/26 11:05:21;;;;;;;;;;;;;;;1.09;67.67;96658.03;108964;1249;95555;-72
2023/02/26 11:08:13;;;;;;;;;;;;;;;1.22;67.49;96655.36;109043;1249;96341;-71
2023/02/26 11:10:58;;;;;;;;;;;;;;;1.56;68.02;96654.98;108269;1259;103520;-75
2023/02/26 11:13:27;;;;;;;;;;;;;;;2.14;68.06;96652.52;108279;1259;101659;-71
2023/02/26 11:15:57;;;;;;;;;;;;;;;2.79;67.11;96651.88;108196;1259;99330;-74
2023/02/26 11:18:29;;;;;;;;;;;;;;;3.18;66.27;96650.02;108231;1259;96036;-72
2023/02/26 11:20:58;;;;;;;;;;;;;;;3.65;65.52;96651.02;108263;1258;95691;-72
2023/02/26 11:23:28;;;;;;;;;;;;;;;4.10;63.93;96648.73;108255;1258;103547;-72
2023/02/26 11:26:15;;;;;;;;;;;;;;;4.29;63.09;96650.09;108281;1259;101364;-71
2023/02/26 11:28:45;;;;;;;;;;;;;;;4.22;62.40;96655.36;108252;1259;108875;-74
2023/02/26 11:31:19;;;;;;;;;;;;;;;4.12;62.17;96659.48;108244;1259;95570;-75
2023/02/26 11:33:54;;;;;;;;;;;;;;;4.06;62.11;96660.08;108259;1259;95747;-76
2023/02/26 11:36:27;;;;;;;;;;;;;;;3.83;61.79;96665.77;108274;1259;103525;-75
2023/02/26 11:38:57;;;;;;;;;;;;;;;3.63;61.83;96668.07;108247;1259;101301;-73
2023/02/26 11:41:25;;;;;;;;;;;;;;;3.35;61.77;96671.05;108154;1259;99296;-74
2023/02/26 11:44:02;;;;;;;;;;;;;;;3.14;61.78;96670.59;108241;1259;95985;-74
2023/02/26 11:46:30;;;;;;;;;;;;;;;2.77;61.55;96672.19;108295;1259;95703;-76
2023/02/26 11:49:00;;;;;;;;;;;;;;;2.61;61.52;96676.33;108930;1249;103522;-73
2023/02/26 11:51:29;;;;;;;;;;;;;;;2.41;61.62;96678.48;109089;1250;101038;-76
2023/02/26 11:54:00;;;;;;;;;;;;;;;2.37;61.85;96684.85;108891;1250;99637;-74
2023/02/26 11:56:47;;;;;;;;;;;;;;;2.40;61.65;96686.33;109012;1250;95803;-76
2023/02/26 11:59:25;;;;;;;;;;;;;;;2.35;61.97;96690.81;109000;1250;95666;-75
2023/02/26 12:01:53;;;;;;;;;;;;;;;2.36;61.83;96694.21;109022;1250;103593;-74
2023/02/26 12:04:23;;;;;;;;;;;;;;;2.49;61.71;96704.20;108704;1251;101254;-76
2023/02/26 12:06:53;;;;;;;;;;;;;;;2.67;61.37;96708.31;108447;1249;98982;-74
2023/02/26 12:09:21;;;;;;;;;;;;;;;2.65;61.18;96719.80;108628;1254;95920;-74
2023/02/26 12:12:04;;;;;;;;;;;;;;;2.33;61.50;96725.31;108658;1249;95820;-71
2023/02/26 12:14:48;;;;;;;;;;;;;;;2.00;62.27;96732.10;109009;1250;103553;-73
2023/02/26 12:17:19;;;;;;;;;;;;;;;1.95;63.03;96737.48;108979;1250;101349;-72
2023/02/26 12:20:13;;;;;;;;;;;;;;;1.96;63.18;96743.77;108913;1249;99739;-74
2023/02/26 12:22:54;;;;;;;;;;;;;;;1.75;63.09;96748.29;108976;1250;95577;-74
2023/02/26 12:25:23;;;;;;;;;;;;;;;1.64;63.52;96748.27;108999;1250;95673;-72
2023/02/26 12:27:54;;;;;;;;;;;;;;;1.67;63.90;96744.54;109030;1250;103975;-70
2023/02/26 12:30:36;;;;;;;;;;;;;;;1.73;63.84;96754.84;109044;1250;100346;-71
2023/02/26 12:33:11;;;;;;;;;;;;;;;1.83;63.86;96761.89;108934;1250;99939;-71
2023/02/26 12:35:51;;;;;;;;;;;;;;;1.95;63.78;96763.04;108992;1250;95620;-71
2023/02/26 12:38:25;;;;;;;;;;;;;;;1.92;63.66;96769.08;108664;1251;95697;-72
2023/02/26 12:40:56;;;;;;;;;;;;;;;1.88;63.89;96767.20;108940;1250;103509;-70
2023/02/26 12:43:42;;;;;;;;;;;;;;;1.98;64.17;96757.41;109023;1250;101268;-71
2023/02/26 12:46:23;;;;;;;;;;;;;;;2.19;64.58;96753.66;108951;1249;98998;-71
2023/02/26 12:48:55;;;;;;;;;;;;;;;2.57;64.51;96753.42;108935;1250;95552;-69
2023/02/26 12:51:33;;;;;;;;;;;;;;;3.03;64.30;96760.10;109053;1249;96437;-71
2023/02/26 12:54:01;;;;;;;;;;;;;;;3.61;64.06;96757.71;109012;1249;103675;-72
2023/02/26 12:56:49;;;;;;;;;;;;;;;4.20;63.65;96754.91;108971;1250;100366;-71
2023/02/26 12:59:23;;;;;;;;;;;;;;;4.42;61.75;96758.18;108987;1249;99848;-72
2023/02/26 13:02:10;;;;;;;;;;;;;;;4.28;60.96;96754.00;109011;1250;95604;-71